Parvin, Pennsylvania
Current Conditions -  °F | °C
As of 11:55 PM on Saturday 25 Oct 2014 (Local Time) from KUNV Reporting Station
Clear Clear  
Wind Chill: 59°   Ceiling: Unl
Heat Index: 59°   Visibility: 10mi
Dew Point: 41°   Wind: 10mph
Humidity: 52%   Direction: 270°W
Pressure: 29.66"   Gusts: 22mph
Location:  41.0898°N, 77.4915°W
Report Text: KUNV 260355Z AUTO 27009G19KT 10SM CLR 15/05 A2966 RMK AO2 T01510052 401950057
Loading
Personal Weather Stations






























Interactive Weather Map
Tropical Storm Tracking
New forecast layout! Learn more

10-Day Weather Forecast

Advertisements
Track Severe Weather on mobile